Flugplatz Ochsenfurt (EDGJ)

Hier findest Du alle Informationen zum Flugplatz Ochsenfurt (EDGJ).

Informationen für Piloten zum Flugplatz Ochsenfurt

Hier findest Du alle relevanten Informationen, die Du als Pilot benötigst, um Ochsenfurt anzufliegen.

Flugplatz: Ochsenfurt ICAO-Code: EDGJ
Frequenz Turm: 123,000 Mhz GAFOR Gebiet: 54
Frequenz Ground: 123,000 Mhz Mogas: nein
Platzrunde: N 1600 ft Landegebühr: -
Platzhöhe: - Sunrise: 05:18 Uhr UTC
Pisten: 10/28 - 512 m x 20 m, GRAS Sunset: 17:00 Uhr UTC

Mitglieder, die in Ochsenfurt fliegen

Flugwetter am Flugplatz Ochsenfurt

Die METAR Information stammen aus EDDN (75.15 km entfernt).

METAR Code:
2022/09/26 11:50
EDDN 261150Z AUTO 20010KT 170V240 9999 SCT035 SCT043 15/07 Q1007 NOSIG

Temperatur: 7,3 °C Niederschlag: - Wind: 6,2 kt (max.: 15,0 kt in Böen)
Temperatur (min.): 6,7 °C Luftdruck: 1013 hPa Windrichtung: 198 °
Temperatur (max.): 8,5 °C Luftfeuchtigkeit: 87 % Bewölkung: 8/8

Flugschulen am Flugplatz Ochsenfurt

Am Flugplatz Ochsenfurt gibt es leider keine Flugschule.

Benachbarte Flugplätze und Flugschulen

Es gibt 22 weitere Flugplätze in einem Umkreis von 50 km um den Flugplatz Ochsenfurt.

Jetzt anmelden

Passwort vergessen

Umfrage Archiv

Sendet Ihr ADS-B und/oder FLARM?

Ja
84.1 %
Nein
15.9 %
Stimmen: 227 | Diskussion
Anzeige: Roland Aircraft
Statistik Alle Mitglieder

Aktuell sind 44 Besucher online.

Anzeige: ULPower Aero Engines Anzeige: Pocket FMS